sensor_id;sensor_type;location;lat;lon;timestamp;pressure;altitude;pressure_sealevel;temperature;humidity
44359;BME280;30077;52.474;13.326;2022-12-24T00:04:31;99679.69;;;5.59;100.00
44359;BME280;30077;52.474;13.326;2022-12-24T00:09:31;99673.06;;;5.49;100.00
44359;BME280;30077;52.474;13.326;2022-12-24T00:14:31;99666.28;;;5.42;100.00
44359;BME280;30077;52.474;13.326;2022-12-24T00:19:31;99666.88;;;5.26;100.00
44359;BME280;30077;52.474;13.326;2022-12-24T00:24:32;99657.59;;;5.16;100.00
44359;BME280;30077;52.474;13.326;2022-12-24T00:29:32;99672.88;;;5.08;100.00
44359;BME280;30077;52.474;13.326;2022-12-24T00:34:33;99680.88;;;5.06;100.00
44359;BME280;30077;52.474;13.326;2022-12-24T00:39:33;99665.09;;;5.05;100.00
44359;BME280;30077;52.474;13.326;2022-12-24T00:44:33;99681.94;;;5.02;100.00
44359;BME280;30077;52.474;13.326;2022-12-24T00:49:33;99675.47;;;5.10;100.00
44359;BME280;30077;52.474;13.326;2022-12-24T00:54:34;99688.88;;;5.05;100.00
44359;BME280;30077;52.474;13.326;2022-12-24T00:59:34;99699.47;;;5.05;100.00
44359;BME280;30077;52.474;13.326;2022-12-24T01:04:34;99698.75;;;5.00;100.00
44359;BME280;30077;52.474;13.326;2022-12-24T01:09:53;99702.38;;;4.97;100.00
44359;BME280;30077;52.474;13.326;2022-12-24T01:14:53;99703.25;;;4.98;100.00
44359;BME280;30077;52.474;13.326;2022-12-24T01:19:53;99715.53;;;4.99;100.00
44359;BME280;30077;52.474;13.326;2022-12-24T01:24:54;99719.03;;;4.99;100.00
44359;BME280;30077;52.474;13.326;2022-12-24T01:29:54;99723.47;;;4.99;100.00
44359;BME280;30077;52.474;13.326;2022-12-24T01:34:54;99718.00;;;5.03;100.00
44359;BME280;30077;52.474;13.326;2022-12-24T01:39:54;99720.72;;;5.02;100.00
44359;BME280;30077;52.474;13.326;2022-12-24T01:45:38;99720.59;;;5.05;100.00
44359;BME280;30077;52.474;13.326;2022-12-24T01:50:39;99733.00;;;5.03;100.00
44359;BME280;30077;52.474;13.326;2022-12-24T01:55:40;99737.31;;;5.05;100.00
44359;BME280;30077;52.474;13.326;2022-12-24T02:00:42;99743.47;;;5.06;100.00
44359;BME280;30077;52.474;13.326;2022-12-24T02:05:54;99756.63;;;5.07;100.00
44359;BME280;30077;52.474;13.326;2022-12-24T02:10:55;99766.22;;;5.10;100.00
44359;BME280;30077;52.474;13.326;2022-12-24T02:16:04;99771.44;;;5.12;100.00
44359;BME280;30077;52.474;13.326;2022-12-24T02:21:29;99784.44;;;5.18;100.00
44359;BME280;30077;52.474;13.326;2022-12-24T02:27:00;99798.53;;;5.18;100.00
44359;BME280;30077;52.474;13.326;2022-12-24T02:32:14;99791.59;;;5.16;100.00
44359;BME280;30077;52.474;13.326;2022-12-24T02:37:24;99801.06;;;5.21;100.00
44359;BME280;30077;52.474;13.326;2022-12-24T02:42:30;99808.06;;;5.22;100.00
44359;BME280;30077;52.474;13.326;2022-12-24T02:47:34;99813.34;;;5.22;100.00
44359;BME280;30077;52.474;13.326;2022-12-24T02:52:40;99824.66;;;5.27;100.00
44359;BME280;30077;52.474;13.326;2022-12-24T02:58:09;99833.66;;;5.22;100.00
44359;BME280;30077;52.474;13.326;2022-12-24T03:03:32;99829.19;;;5.24;100.00
44359;BME280;30077;52.474;13.326;2022-12-24T03:08:53;99822.97;;;5.25;100.00
44359;BME280;30077;52.474;13.326;2022-12-24T03:13:58;99839.03;;;5.19;100.00
44359;BME280;30077;52.474;13.326;2022-12-24T03:18:59;99838.94;;;5.22;100.00
44359;BME280;30077;52.474;13.326;2022-12-24T03:24:00;99844.34;;;5.19;100.00
44359;BME280;30077;52.474;13.326;2022-12-24T03:29:05;99850.28;;;5.25;100.00
44359;BME280;30077;52.474;13.326;2022-12-24T03:34:06;99863.59;;;5.22;100.00
44359;BME280;30077;52.474;13.326;2022-12-24T03:39:06;99868.59;;;5.30;100.00
44359;BME280;30077;52.474;13.326;2022-12-24T03:44:06;99874.72;;;5.32;100.00
44359;BME280;30077;52.474;13.326;2022-12-24T03:49:06;99884.53;;;5.28;100.00
44359;BME280;30077;52.474;13.326;2022-12-24T03:54:07;99887.09;;;5.31;100.00
44359;BME280;30077;52.474;13.326;2022-12-24T03:59:07;99890.88;;;5.24;100.00
44359;BME280;30077;52.474;13.326;2022-12-24T04:04:07;99902.19;;;5.28;100.00
44359;BME280;30077;52.474;13.326;2022-12-24T04:09:08;99897.66;;;5.31;100.00
44359;BME280;30077;52.474;13.326;2022-12-24T04:14:08;99898.53;;;5.32;100.00
44359;BME280;30077;52.474;13.326;2022-12-24T04:19:08;99895.81;;;5.34;100.00
44359;BME280;30077;52.474;13.326;2022-12-24T04:24:08;99904.50;;;5.37;100.00
44359;BME280;30077;52.474;13.326;2022-12-24T04:29:08;99915.25;;;5.32;100.00
44359;BME280;30077;52.474;13.326;2022-12-24T04:34:09;99923.19;;;5.32;100.00
44359;BME280;30077;52.474;13.326;2022-12-24T04:39:09;99943.31;;;5.37;100.00
44359;BME280;30077;52.474;13.326;2022-12-24T04:44:09;99950.22;;;5.41;100.00
44359;BME280;30077;52.474;13.326;2022-12-24T04:49:10;99958.22;;;5.39;100.00
44359;BME280;30077;52.474;13.326;2022-12-24T04:54:10;99954.63;;;5.42;100.00
44359;BME280;30077;52.474;13.326;2022-12-24T04:59:10;99955.38;;;5.45;100.00
44359;BME280;30077;52.474;13.326;2022-12-24T05:04:10;99963.97;;;5.52;100.00
44359;BME280;30077;52.474;13.326;2022-12-24T05:09:11;99962.16;;;5.52;100.00
44359;BME280;30077;52.474;13.326;2022-12-24T05:14:11;99970.09;;;5.52;100.00
44359;BME280;30077;52.474;13.326;2022-12-24T05:19:11;99965.88;;;5.47;100.00
44359;BME280;30077;52.474;13.326;2022-12-24T05:24:12;99967.59;;;5.48;100.00
44359;BME280;30077;52.474;13.326;2022-12-24T05:29:30;99962.69;;;5.37;100.00
44359;BME280;30077;52.474;13.326;2022-12-24T05:34:31;99965.09;;;5.45;100.00
44359;BME280;30077;52.474;13.326;2022-12-24T05:39:31;99964.91;;;5.49;100.00
44359;BME280;30077;52.474;13.326;2022-12-24T05:44:31;99973.66;;;5.51;100.00
44359;BME280;30077;52.474;13.326;2022-12-24T05:49:31;99981.75;;;5.47;100.00
44359;BME280;30077;52.474;13.326;2022-12-24T05:54:32;99986.13;;;5.48;100.00
44359;BME280;30077;52.474;13.326;2022-12-24T05:59:32;99994.88;;;5.50;100.00
44359;BME280;30077;52.474;13.326;2022-12-24T06:04:32;99996.59;;;5.51;100.00
44359;BME280;30077;52.474;13.326;2022-12-24T06:09:32;100006.13;;;5.57;100.00
44359;BME280;30077;52.474;13.326;2022-12-24T06:14:33;100019.28;;;5.58;100.00
44359;BME280;30077;52.474;13.326;2022-12-24T06:19:33;100025.59;;;5.54;100.00
44359;BME280;30077;52.474;13.326;2022-12-24T06:24:33;100027.22;;;5.58;100.00
44359;BME280;30077;52.474;13.326;2022-12-24T06:29:33;100032.50;;;5.58;100.00
44359;BME280;30077;52.474;13.326;2022-12-24T06:34:34;100036.84;;;5.61;100.00
44359;BME280;30077;52.474;13.326;2022-12-24T06:39:34;100035.16;;;5.58;100.00
44359;BME280;30077;52.474;13.326;2022-12-24T06:44:35;100040.56;;;5.55;100.00
44359;BME280;30077;52.474;13.326;2022-12-24T06:49:35;100036.38;;;5.48;100.00
44359;BME280;30077;52.474;13.326;2022-12-24T06:54:35;100050.34;;;5.53;100.00
44359;BME280;30077;52.474;13.326;2022-12-24T06:59:35;100067.00;;;5.55;100.00
44359;BME280;30077;52.474;13.326;2022-12-24T07:04:36;100071.50;;;5.53;100.00
44359;BME280;30077;52.474;13.326;2022-12-24T07:09:36;100069.56;;;5.58;100.00
44359;BME280;30077;52.474;13.326;2022-12-24T07:14:36;100085.44;;;5.58;100.00
44359;BME280;30077;52.474;13.326;2022-12-24T07:19:36;100092.50;;;5.58;100.00
44359;BME280;30077;52.474;13.326;2022-12-24T07:24:37;100101.97;;;5.65;100.00
44359;BME280;30077;52.474;13.326;2022-12-24T07:29:37;100117.00;;;5.64;100.00
44359;BME280;30077;52.474;13.326;2022-12-24T07:34:37;100120.44;;;5.66;100.00
44359;BME280;30077;52.474;13.326;2022-12-24T07:39:38;100115.28;;;5.63;100.00
44359;BME280;30077;52.474;13.326;2022-12-24T07:44:38;100124.00;;;5.65;100.00
44359;BME280;30077;52.474;13.326;2022-12-24T07:49:39;100138.94;;;5.66;100.00
44359;BME280;30077;52.474;13.326;2022-12-24T07:54:39;100142.53;;;5.65;100.00
44359;BME280;30077;52.474;13.326;2022-12-24T07:59:39;100152.09;;;5.69;100.00
44359;BME280;30077;52.474;13.326;2022-12-24T08:04:40;100143.25;;;5.70;100.00
44359;BME280;30077;52.474;13.326;2022-12-24T08:09:40;100143.00;;;5.78;100.00
44359;BME280;30077;52.474;13.326;2022-12-24T08:14:40;100136.13;;;5.72;100.00
44359;BME280;30077;52.474;13.326;2022-12-24T08:19:40;100149.94;;;5.80;100.00
44359;BME280;30077;52.474;13.326;2022-12-24T08:24:41;100148.13;;;5.83;100.00
44359;BME280;30077;52.474;13.326;2022-12-24T08:29:41;100163.81;;;5.89;100.00
44359;BME280;30077;52.474;13.326;2022-12-24T08:34:41;100164.78;;;5.86;100.00
44359;BME280;30077;52.474;13.326;2022-12-24T08:39:41;100171.03;;;5.84;100.00
44359;BME280;30077;52.474;13.326;2022-12-24T08:44:42;100177.06;;;5.89;100.00
44359;BME280;30077;52.474;13.326;2022-12-24T08:49:42;100181.28;;;5.94;100.00
44359;BME280;30077;52.474;13.326;2022-12-24T08:54:42;100188.28;;;5.97;100.00
44359;BME280;30077;52.474;13.326;2022-12-24T08:59:42;100185.47;;;6.01;100.00
44359;BME280;30077;52.474;13.326;2022-12-24T09:04:42;100195.88;;;6.06;100.00
44359;BME280;30077;52.474;13.326;2022-12-24T09:09:43;100192.25;;;6.10;100.00
44359;BME280;30077;52.474;13.326;2022-12-24T09:14:44;100214.31;;;6.09;100.00
44359;BME280;30077;52.474;13.326;2022-12-24T09:19:45;100225.84;;;6.08;100.00
44359;BME280;30077;52.474;13.326;2022-12-24T09:24:45;100221.97;;;6.18;100.00
44359;BME280;30077;52.474;13.326;2022-12-24T09:29:45;100233.06;;;6.30;100.00
44359;BME280;30077;52.474;13.326;2022-12-24T09:34:46;100248.84;;;6.33;100.00
44359;BME280;30077;52.474;13.326;2022-12-24T09:39:46;100253.81;;;6.42;100.00
44359;BME280;30077;52.474;13.326;2022-12-24T09:45:01;100255.56;;;6.43;100.00
44359;BME280;30077;52.474;13.326;2022-12-24T09:50:04;100261.47;;;6.51;100.00
44359;BME280;30077;52.474;13.326;2022-12-24T09:55:20;100275.38;;;6.58;100.00
44359;BME280;30077;52.474;13.326;2022-12-24T10:00:26;100284.78;;;6.66;100.00
44359;BME280;30077;52.474;13.326;2022-12-24T10:10:52;100304.03;;;6.71;100.00
44359;BME280;30077;52.474;13.326;2022-12-24T10:16:09;100294.84;;;6.82;100.00
44359;BME280;30077;52.474;13.326;2022-12-24T10:21:46;100307.44;;;7.00;100.00
44359;BME280;30077;52.474;13.326;2022-12-24T10:27:02;100304.78;;;7.00;100.00
44359;BME280;30077;52.474;13.326;2022-12-24T10:37:15;100332.59;;;7.13;100.00
44359;BME280;30077;52.474;13.326;2022-12-24T10:42:17;100336.41;;;7.06;100.00
44359;BME280;30077;52.474;13.326;2022-12-24T10:47:19;100334.44;;;7.11;100.00
44359;BME280;30077;52.474;13.326;2022-12-24T10:52:23;100344.16;;;7.12;100.00
44359;BME280;30077;52.474;13.326;2022-12-24T10:57:26;100342.88;;;7.22;100.00
44359;BME280;30077;52.474;13.326;2022-12-24T11:02:30;100360.31;;;7.30;100.00
44359;BME280;30077;52.474;13.326;2022-12-24T11:07:31;100371.06;;;7.27;100.00
44359;BME280;30077;52.474;13.326;2022-12-24T11:12:37;100377.25;;;7.26;100.00
44359;BME280;30077;52.474;13.326;2022-12-24T11:17:39;100374.13;;;7.14;100.00
44359;BME280;30077;52.474;13.326;2022-12-24T11:22:39;100373.06;;;7.20;100.00
44359;BME280;30077;52.474;13.326;2022-12-24T11:27:43;100365.75;;;7.27;100.00
44359;BME280;30077;52.474;13.326;2022-12-24T11:43:21;100382.84;;;7.66;100.00
44359;BME280;30077;52.474;13.326;2022-12-24T11:48:30;100375.91;;;7.62;100.00
44359;BME280;30077;52.474;13.326;2022-12-24T11:53:40;100386.06;;;7.51;100.00
44359;BME280;30077;52.474;13.326;2022-12-24T11:58:47;100399.56;;;7.45;100.00
44359;BME280;30077;52.474;13.326;2022-12-24T12:04:01;100392.66;;;7.64;100.00
44359;BME280;30077;52.474;13.326;2022-12-24T12:09:18;100403.25;;;7.88;100.00
44359;BME280;30077;52.474;13.326;2022-12-24T12:14:24;100410.88;;;7.97;100.00
44359;BME280;30077;52.474;13.326;2022-12-24T12:19:30;100405.34;;;8.03;100.00
44359;BME280;30077;52.474;13.326;2022-12-24T12:24:43;100408.00;;;8.03;100.00
44359;BME280;30077;52.474;13.326;2022-12-24T12:29:56;100422.78;;;8.10;100.00
44359;BME280;30077;52.474;13.326;2022-12-24T12:35:20;100424.09;;;8.22;100.00
44359;BME280;30077;52.474;13.326;2022-12-24T12:45:57;100429.00;;;8.33;100.00
44359;BME280;30077;52.474;13.326;2022-12-24T12:56:34;100438.34;;;8.19;100.00
44359;BME280;30077;52.474;13.326;2022-12-24T13:01:48;100440.06;;;8.20;100.00
44359;BME280;30077;52.474;13.326;2022-12-24T13:07:37;100453.44;;;8.19;100.00
44359;BME280;30077;52.474;13.326;2022-12-24T13:13:08;100449.91;;;8.18;100.00
44359;BME280;30077;52.474;13.326;2022-12-24T13:23:39;100449.63;;;8.26;100.00
44359;BME280;30077;52.474;13.326;2022-12-24T13:28:40;100451.41;;;8.26;100.00
44359;BME280;30077;52.474;13.326;2022-12-24T13:38:42;100470.03;;;8.26;100.00
44359;BME280;30077;52.474;13.326;2022-12-24T13:49:24;100488.06;;;8.17;100.00
44359;BME280;30077;52.474;13.326;2022-12-24T13:54:26;100504.56;;;8.02;100.00
44359;BME280;30077;52.474;13.326;2022-12-24T13:59:35;100514.03;;;7.86;100.00
44359;BME280;30077;52.474;13.326;2022-12-24T14:04:37;100516.19;;;7.75;100.00
44359;BME280;30077;52.474;13.326;2022-12-24T14:09:47;100530.63;;;7.67;100.00
44359;BME280;30077;52.474;13.326;2022-12-24T14:14:48;100532.78;;;7.56;100.00
44359;BME280;30077;52.474;13.326;2022-12-24T14:19:57;100539.38;;;7.44;100.00
44359;BME280;30077;52.474;13.326;2022-12-24T14:30:17;100550.06;;;7.16;100.00
44359;BME280;30077;52.474;13.326;2022-12-24T14:35:36;100558.28;;;7.07;100.00
44359;BME280;30077;52.474;13.326;2022-12-24T14:46:14;100566.84;;;6.89;100.00
44359;BME280;30077;52.474;13.326;2022-12-24T14:51:24;100580.41;;;6.80;100.00
44359;BME280;30077;52.474;13.326;2022-12-24T14:56:28;100575.28;;;6.73;100.00
44359;BME280;30077;52.474;13.326;2022-12-24T15:01:30;100597.44;;;6.71;100.00
44359;BME280;30077;52.474;13.326;2022-12-24T15:06:35;100604.69;;;6.64;100.00
44359;BME280;30077;52.474;13.326;2022-12-24T15:11:37;100608.44;;;6.57;100.00
44359;BME280;30077;52.474;13.326;2022-12-24T15:16:37;100617.53;;;6.50;100.00
44359;BME280;30077;52.474;13.326;2022-12-24T15:21:40;100616.94;;;6.39;100.00
44359;BME280;30077;52.474;13.326;2022-12-24T15:26:43;100627.75;;;6.31;100.00
44359;BME280;30077;52.474;13.326;2022-12-24T15:31:44;100635.84;;;6.26;100.00
44359;BME280;30077;52.474;13.326;2022-12-24T15:36:44;100634.28;;;6.19;100.00
44359;BME280;30077;52.474;13.326;2022-12-24T15:41:44;100637.91;;;6.15;100.00
44359;BME280;30077;52.474;13.326;2022-12-24T15:47:06;100646.84;;;6.11;100.00
44359;BME280;30077;52.474;13.326;2022-12-24T15:52:09;100652.22;;;6.08;100.00
44359;BME280;30077;52.474;13.326;2022-12-24T15:57:13;100654.16;;;6.03;100.00
44359;BME280;30077;52.474;13.326;2022-12-24T16:07:25;100659.59;;;5.97;100.00
44359;BME280;30077;52.474;13.326;2022-12-24T16:12:25;100665.00;;;5.91;100.00
44359;BME280;30077;52.474;13.326;2022-12-24T16:17:27;100679.25;;;5.87;100.00
44359;BME280;30077;52.474;13.326;2022-12-24T16:22:28;100689.03;;;5.83;100.00
44359;BME280;30077;52.474;13.326;2022-12-24T16:27:31;100688.16;;;5.83;100.00
44359;BME280;30077;52.474;13.326;2022-12-24T16:32:33;100693.53;;;5.79;100.00
44359;BME280;30077;52.474;13.326;2022-12-24T16:37:34;100690.16;;;5.74;100.00
44359;BME280;30077;52.474;13.326;2022-12-24T16:42:34;100690.25;;;5.70;100.00
44359;BME280;30077;52.474;13.326;2022-12-24T16:47:55;100690.34;;;5.65;100.00
44359;BME280;30077;52.474;13.326;2022-12-24T16:52:56;100708.09;;;5.62;100.00
44359;BME280;30077;52.474;13.326;2022-12-24T16:57:56;100705.44;;;5.62;100.00
44359;BME280;30077;52.474;13.326;2022-12-24T17:02:57;100709.88;;;5.61;100.00
44359;BME280;30077;52.474;13.326;2022-12-24T17:08:00;100709.88;;;5.61;100.00
44359;BME280;30077;52.474;13.326;2022-12-24T17:13:00;100716.97;;;5.59;100.00
44359;BME280;30077;52.474;13.326;2022-12-24T17:18:00;100738.22;;;5.56;100.00
44359;BME280;30077;52.474;13.326;2022-12-24T17:23:01;100742.72;;;5.52;100.00
44359;BME280;30077;52.474;13.326;2022-12-24T17:28:01;100743.44;;;5.59;100.00
44359;BME280;30077;52.474;13.326;2022-12-24T17:33:01;100750.78;;;5.84;100.00
44359;BME280;30077;52.474;13.326;2022-12-24T17:38:02;100751.38;;;5.98;100.00
44359;BME280;30077;52.474;13.326;2022-12-24T17:43:02;100755.59;;;6.07;100.00
44359;BME280;30077;52.474;13.326;2022-12-24T17:48:02;100754.69;;;6.06;100.00
44359;BME280;30077;52.474;13.326;2022-12-24T17:53:03;100754.94;;;5.97;100.00
44359;BME280;30077;52.474;13.326;2022-12-24T17:58:03;100774.22;;;6.02;100.00
44359;BME280;30077;52.474;13.326;2022-12-24T18:03:11;100771.38;;;6.10;100.00
44359;BME280;30077;52.474;13.326;2022-12-24T18:08:12;100780.09;;;6.15;100.00
44359;BME280;30077;52.474;13.326;2022-12-24T18:13:12;100799.34;;;6.21;100.00
44359;BME280;30077;52.474;13.326;2022-12-24T18:18:13;100801.81;;;6.27;100.00
44359;BME280;30077;52.474;13.326;2022-12-24T18:23:13;100796.47;;;6.31;100.00
44359;BME280;30077;52.474;13.326;2022-12-24T18:28:13;100806.03;;;6.36;100.00
44359;BME280;30077;52.474;13.326;2022-12-24T18:33:13;100805.06;;;6.39;100.00
44359;BME280;30077;52.474;13.326;2022-12-24T18:38:14;100812.94;;;6.42;100.00
44359;BME280;30077;52.474;13.326;2022-12-24T18:43:14;100819.91;;;6.46;100.00
44359;BME280;30077;52.474;13.326;2022-12-24T18:48:14;100825.13;;;6.50;100.00
44359;BME280;30077;52.474;13.326;2022-12-24T18:53:14;100821.47;;;6.55;100.00
44359;BME280;30077;52.474;13.326;2022-12-24T18:58:15;100819.47;;;6.63;100.00
44359;BME280;30077;52.474;13.326;2022-12-24T19:03:15;100834.38;;;6.68;100.00
44359;BME280;30077;52.474;13.326;2022-12-24T19:08:15;100839.75;;;6.65;100.00
44359;BME280;30077;52.474;13.326;2022-12-24T19:13:15;100841.56;;;6.63;100.00
44359;BME280;30077;52.474;13.326;2022-12-24T19:18:16;100838.25;;;6.55;100.00
44359;BME280;30077;52.474;13.326;2022-12-24T19:23:16;100842.81;;;6.48;100.00
44359;BME280;30077;52.474;13.326;2022-12-24T19:28:16;100845.66;;;6.41;100.00
44359;BME280;30077;52.474;13.326;2022-12-24T19:33:17;100846.50;;;6.43;100.00
44359;BME280;30077;52.474;13.326;2022-12-24T19:38:17;100848.28;;;6.42;100.00
44359;BME280;30077;52.474;13.326;2022-12-24T19:43:17;100858.88;;;6.42;100.00
44359;BME280;30077;52.474;13.326;2022-12-24T19:48:18;100866.72;;;6.47;100.00
44359;BME280;30077;52.474;13.326;2022-12-24T19:53:18;100872.16;;;6.41;100.00
44359;BME280;30077;52.474;13.326;2022-12-24T19:58:18;100877.59;;;6.35;100.00
44359;BME280;30077;52.474;13.326;2022-12-24T20:03:19;100873.16;;;6.37;100.00
44359;BME280;30077;52.474;13.326;2022-12-24T20:08:19;100859.94;;;6.35;100.00
44359;BME280;30077;52.474;13.326;2022-12-24T20:13:19;100872.16;;;6.41;100.00
44359;BME280;30077;52.474;13.326;2022-12-24T20:18:20;100876.41;;;6.48;100.00
44359;BME280;30077;52.474;13.326;2022-12-24T20:23:20;100874.56;;;6.51;100.00
44359;BME280;30077;52.474;13.326;2022-12-24T20:28:20;100878.91;;;6.54;100.00
44359;BME280;30077;52.474;13.326;2022-12-24T20:33:21;100882.63;;;6.47;100.00
44359;BME280;30077;52.474;13.326;2022-12-24T20:38:21;100884.56;;;6.39;100.00
44359;BME280;30077;52.474;13.326;2022-12-24T20:43:22;100882.97;;;6.32;100.00
44359;BME280;30077;52.474;13.326;2022-12-24T20:48:23;100897.28;;;6.24;100.00
44359;BME280;30077;52.474;13.326;2022-12-24T20:53:23;100902.56;;;6.24;100.00
44359;BME280;30077;52.474;13.326;2022-12-24T20:58:23;100906.75;;;6.35;100.00
44359;BME280;30077;52.474;13.326;2022-12-24T21:03:24;100909.28;;;6.41;100.00
44359;BME280;30077;52.474;13.326;2022-12-24T21:08:24;100917.09;;;6.45;100.00
44359;BME280;30077;52.474;13.326;2022-12-24T21:13:25;100914.50;;;6.44;100.00
44359;BME280;30077;52.474;13.326;2022-12-24T21:18:25;100917.09;;;6.45;100.00
44359;BME280;30077;52.474;13.326;2022-12-24T21:23:26;100921.47;;;6.48;100.00
44359;BME280;30077;52.474;13.326;2022-12-24T21:28:27;100932.91;;;6.50;100.00
44359;BME280;30077;52.474;13.326;2022-12-24T21:33:28;100924.97;;;6.50;100.00
44359;BME280;30077;52.474;13.326;2022-12-24T21:38:29;100935.47;;;6.53;100.00
44359;BME280;30077;52.474;13.326;2022-12-24T21:43:30;100954.88;;;6.55;100.00
44359;BME280;30077;52.474;13.326;2022-12-24T21:48:30;100959.25;;;6.56;100.00
44359;BME280;30077;52.474;13.326;2022-12-24T21:53:49;100965.47;;;6.55;100.00
44359;BME280;30077;52.474;13.326;2022-12-24T21:59:08;100965.41;;;6.58;100.00
44359;BME280;30077;52.474;13.326;2022-12-24T22:04:09;100976.00;;;6.58;100.00
44359;BME280;30077;52.474;13.326;2022-12-24T22:09:09;100979.47;;;6.60;100.00
44359;BME280;30077;52.474;13.326;2022-12-24T22:14:28;100978.50;;;6.64;100.00
44359;BME280;30077;52.474;13.326;2022-12-24T22:19:29;100981.16;;;6.64;100.00
44359;BME280;30077;52.474;13.326;2022-12-24T22:24:29;100992.66;;;6.63;100.00
44359;BME280;30077;52.474;13.326;2022-12-24T22:29:29;100993.59;;;6.62;100.00
44359;BME280;30077;52.474;13.326;2022-12-24T22:34:30;100987.47;;;6.59;100.00
44359;BME280;30077;52.474;13.326;2022-12-24T22:39:31;101000.88;;;6.53;100.00
44359;BME280;30077;52.474;13.326;2022-12-24T22:44:32;101017.88;;;6.44;100.00
44359;BME280;30077;52.474;13.326;2022-12-24T22:49:32;101017.16;;;6.36;100.00
44359;BME280;30077;52.474;13.326;2022-12-24T22:54:34;101025.38;;;6.23;100.00
44359;BME280;30077;52.474;13.326;2022-12-24T22:59:35;101030.03;;;6.12;100.00
44359;BME280;30077;52.474;13.326;2022-12-24T23:04:37;101041.69;;;6.03;100.00
44359;BME280;30077;52.474;13.326;2022-12-24T23:09:38;101046.22;;;5.97;100.00
44359;BME280;30077;52.474;13.326;2022-12-24T23:14:38;101045.53;;;5.86;100.00
44359;BME280;30077;52.474;13.326;2022-12-24T23:19:57;101043.06;;;5.76;100.00
44359;BME280;30077;52.474;13.326;2022-12-24T23:24:57;101041.38;;;5.72;100.00
44359;BME280;30077;52.474;13.326;2022-12-24T23:29:57;101050.34;;;5.65;100.00
44359;BME280;30077;52.474;13.326;2022-12-24T23:34:57;101048.69;;;5.58;100.00
44359;BME280;30077;52.474;13.326;2022-12-24T23:39:58;101048.84;;;5.52;100.00
44359;BME280;30077;52.474;13.326;2022-12-24T23:44:58;101044.56;;;5.45;100.00
44359;BME280;30077;52.474;13.326;2022-12-24T23:49:58;101045.44;;;5.44;100.00
44359;BME280;30077;52.474;13.326;2022-12-24T23:54:58;101035.03;;;5.35;100.00
44359;BME280;30077;52.474;13.326;2022-12-24T23:59:58;101031.56;;;5.29;100.00
